Accueil
METAR-TAF:

METAR-TAF

Aéroports :

Caracas, Venezuela

Aéroport international Maiquetía - Simón Bolívar

latitude: 10-36N, longitude: 066-59W, altitude: 43 m

Observation

Le bulletin a été fait il y a 19 minutes, à 15:00 UTC
Vent 4 kt de nord
Température 30°C
Humidité 75%
Pression 1012 hPa
Visibilité 10 km ou plus
Quelques nuages à une hauteur de 1600 ft

METAR: SVMI 191500Z 36004KT 9999 FEW016 30/25 Q1012

Heure: 11:19 (15:19 UTC)

Prévision

Le bulletin a été fait il y a 5 heures et 19 minutes, à 10:00 UTC
Prévision valable du 19 à 12 UTC au 20 à 12 UTC
Vent 8 kt de nord-ouest
Visibilité 10 km ou plus
Nuages épars à une hauteur de 1600 ft
Evoluant progressivement
du 19 à 12 UTC au 19 à 16 UTC
Vent 10 kt de est/sud-est
Visibilité: 9000 m
Nuages fragmentés à une hauteur de 1600 ft
faible bruine

TAF: SVMI 191000Z 1912/2012 31008KT 9999 SCT016 TX32/18Z TN25/09Z BECMG 1912/1916 11010KT 9000 -DZ BKN016

Observations et prévisions météorologiques de plus de 4000 aéroports (messages METAR et TAF).

Les stations disponibles sont représentées par des disques jaunes et rouges sur la carte.

Passer la souris dessus pour voir le nom de la station.

Cliquer dessus pour voir les observations et prévisions météorologiques.

Pour changer de carte: cliquez sur les boutons verts avec une croix noire pour zoomer, sur le bouton vert avec un tiret pour effectuer un zoom arrière, ou sur les flèches vertes pour les cartes adjacentes.


METAR-TAF: